首页
METAR-TAF:

METAR-TAF

机场 :

Daniel Field Airport

奥古斯塔, 喬治亞, 美国

纬度: 33-28-01N, 经度: 082-02-19W, 海拔: 128米

当前天气观测

该预报发布于14分钟前的09:53 UTC
风速4节,风向西
温度 27°C
湿度 84%
气压 1013 hPa
能見度: 12.9公里
少量云层高于4400英尺

METAR: KDNL 010953Z AUTO 26004KT 8SM FEW044 27/24 A2992 RMK AO2 SLP127 T02670244

时间: 06:07 (10:07 UTC)

预报

该预报发布于1小时和11分钟前的08:56 UTC
预报有效从01日的 09点(UTC)到 02日的 06点(UTC)
风速3节,风向多变
能見度: 10公里
多云层高于25000英尺
从 01日的 1300点(UTC)
风速6节,风向西
能見度: 10公里
散云层高于4000英尺
多云层高于25000英尺
从 01日的 1800点(UTC)
风速10节,风向西,有时为20节阵风
能見度: 10公里
散云层高于4000英尺
多云层高于25000英尺

TAF: KDNL 010856Z 0109/0206 VRB03KT P6SM BKN250 FM011300 28006KT P6SM SCT040 BKN250 FM011800 28010G20KT P6SM SCT040 BKN250

超过4000个机场的气象观测和天气预报(METAR&TAF报告)。

可查询的气象台以黄色和红色小点在地图上表示。

将鼠标移到小点上方,可查看气象台名称。

然后点击查看天气观测和预报。

如需切换地图:点击带黑十字的绿色按钮放大地图;点击带横线的绿色按钮缩小地图;或者点击绿色箭头查看邻近地区的地图。


METAR-TAF: